createdAt,value
2018-06-25T00:04:42.255Z,12.10
2018-06-25T00:07:10.315Z,12.00
2018-06-25T00:09:38.302Z,12.00
2018-06-25T00:14:34.595Z,11.90
2018-06-25T00:17:02.586Z,12.10
2018-06-25T00:24:26.537Z,11.90
2018-06-25T00:31:49.987Z,11.80
2018-06-25T00:34:17.945Z,11.70
2018-06-25T00:36:46.123Z,11.80
2018-06-25T00:39:14.573Z,11.70
2018-06-25T00:41:42.571Z,11.80
2018-06-25T00:44:10.620Z,11.80
2018-06-25T00:46:38.634Z,11.80
2018-06-25T00:49:06.717Z,11.80
2018-06-25T00:51:34.800Z,11.80
2018-06-25T00:54:03.039Z,11.70
2018-06-25T00:59:10.110Z,11.70
2018-06-25T01:01:38.591Z,11.80
2018-06-25T01:04:06.550Z,11.90
2018-06-25T01:06:34.503Z,12.00
2018-06-25T01:09:02.695Z,11.90
2018-06-25T01:11:30.724Z,12.00
2018-06-25T01:16:26.656Z,12.20
2018-06-25T01:18:55.559Z,12.10
2018-06-25T01:21:23.785Z,12.30
2018-06-25T01:23:51.839Z,12.30
2018-06-25T01:28:47.913Z,12.40
2018-06-25T01:36:18.178Z,12.40
2018-06-25T01:38:46.320Z,12.60
2018-06-25T01:41:14.568Z,12.40
2018-06-25T01:43:42.627Z,12.50
2018-06-25T01:48:38.480Z,12.30
2018-06-25T01:53:34.198Z,12.50
2018-06-25T01:58:30.105Z,12.60
2018-06-25T02:05:53.927Z,12.70
2018-06-25T02:08:22.026Z,12.60
2018-06-25T02:10:50.068Z,12.70
2018-06-25T02:13:18.188Z,12.70
2018-06-25T02:18:13.887Z,12.60
2018-06-25T02:20:41.854Z,12.70
2018-06-25T02:25:37.692Z,12.70
2018-06-25T02:28:06.247Z,12.90
2018-06-25T02:30:34.190Z,13.00
2018-06-25T02:33:02.247Z,13.00
2018-06-25T02:40:25.807Z,13.10
2018-06-25T02:42:53.901Z,13.10
2018-06-25T02:45:21.898Z,13.10
2018-06-25T02:47:49.869Z,13.10
2018-06-25T02:50:17.933Z,13.20
2018-06-25T02:52:45.976Z,13.20
2018-06-25T02:55:14.524Z,13.20
2018-06-25T02:57:42.428Z,13.20
2018-06-25T03:00:10.500Z,13.30
2018-06-25T03:05:06.434Z,13.40
2018-06-25T03:07:34.517Z,13.40
2018-06-25T03:10:02.772Z,13.40
2018-06-25T03:12:30.775Z,13.40
2018-06-25T03:17:26.535Z,13.50
2018-06-25T03:19:54.793Z,13.50
2018-06-25T03:24:50.591Z,13.50
2018-06-25T03:27:18.527Z,13.50
2018-06-25T03:29:46.616Z,13.70
2018-06-25T03:32:14.746Z,13.60
2018-06-25T03:34:42.699Z,13.70
2018-06-25T03:37:10.655Z,13.60
2018-06-25T03:39:39.177Z,13.70
2018-06-25T03:42:07.655Z,13.60
2018-06-25T03:47:03.441Z,13.80
2018-06-25T03:49:31.440Z,13.80
2018-06-25T03:52:05.528Z,14.00
2018-06-25T03:54:33.663Z,13.90
2018-06-25T03:57:01.704Z,13.80
2018-06-25T03:59:29.751Z,13.90
2018-06-25T04:01:58.055Z,13.90
2018-06-25T04:04:26.040Z,14.00
2018-06-25T04:06:53.991Z,14.00
2018-06-25T04:09:22.037Z,14.00
2018-06-25T04:14:17.899Z,14.00
2018-06-25T04:16:46.011Z,14.00
2018-06-25T04:19:14.005Z,14.10
2018-06-25T04:21:42.053Z,14.10
2018-06-25T04:24:10.018Z,14.20
2018-06-25T04:31:34.104Z,14.30
2018-06-25T04:34:02.104Z,14.40
2018-06-25T04:36:30.110Z,14.40
2018-06-25T04:43:53.730Z,14.60
2018-06-25T04:46:21.637Z,14.30
2018-06-25T04:48:49.582Z,14.70
2018-06-25T04:51:17.577Z,14.80
2018-06-25T04:53:45.551Z,15.00
2018-06-25T04:56:13.553Z,15.10
2018-06-25T04:58:41.601Z,15.20
2018-06-25T05:01:09.558Z,15.20
2018-06-25T05:03:37.779Z,15.10
2018-06-25T05:08:33.724Z,15.20
2018-06-25T05:11:01.765Z,15.20
2018-06-25T05:13:29.872Z,15.10
2018-06-25T05:15:57.755Z,15.30
2018-06-25T05:18:25.733Z,15.40
2018-06-25T05:23:22.346Z,15.20
2018-06-25T05:25:50.315Z,15.10
2018-06-25T05:28:18.225Z,15.20
2018-06-25T05:30:46.643Z,15.00
2018-06-25T05:40:37.973Z,14.70
2018-06-25T05:43:05.996Z,14.90
2018-06-25T05:48:02.216Z,14.90
2018-06-25T05:50:30.488Z,14.90
2018-06-25T05:52:58.471Z,14.80
2018-06-25T05:55:26.765Z,15.10
2018-06-25T05:57:55.308Z,15.00
2018-06-25T06:00:26.222Z,14.90
2018-06-25T06:03:02.527Z,15.20
2018-06-25T06:05:31.869Z,15.20
2018-06-25T06:07:59.821Z,15.30
2018-06-25T06:10:27.633Z,15.00
2018-06-25T06:12:55.853Z,15.20
2018-06-25T06:15:23.736Z,15.20
2018-06-25T06:17:51.629Z,15.40
2018-06-25T06:20:19.855Z,15.50
2018-06-25T06:25:15.527Z,15.30
2018-06-25T06:32:39.465Z,15.20
2018-06-25T06:35:10.514Z,15.20
2018-06-25T06:45:02.218Z,14.90
2018-06-25T06:47:30.580Z,15.20
2018-06-25T06:50:00.032Z,15.20
2018-06-25T06:52:28.293Z,15.30
2018-06-25T06:54:56.854Z,15.40
2018-06-25T06:59:53.615Z,15.20
2018-06-25T07:02:25.519Z,15.10
2018-06-25T07:04:54.266Z,15.00
2018-06-25T07:07:22.432Z,15.00
2018-06-25T07:12:18.195Z,15.00
2018-06-25T07:14:46.114Z,15.30
2018-06-25T07:17:14.110Z,15.30
2018-06-25T07:19:42.848Z,15.50
2018-06-25T07:22:10.780Z,15.20
2018-06-25T07:24:39.165Z,15.40
2018-06-25T07:27:07.031Z,15.50
2018-06-25T07:29:35.164Z,15.70
2018-06-25T07:34:31.270Z,15.80
2018-06-25T07:39:27.435Z,15.90
2018-06-25T07:41:55.488Z,15.90
2018-06-25T07:51:54.672Z,16.40
2018-06-25T07:54:22.734Z,16.30
2018-06-25T08:09:13.172Z,16.50
2018-06-25T08:11:41.238Z,16.40
2018-06-25T08:14:09.312Z,16.30
2018-06-25T08:16:37.373Z,16.40
2018-06-25T08:19:06.198Z,16.90
2018-06-25T08:24:02.441Z,17.00
2018-06-25T08:26:30.332Z,17.40
2018-06-25T08:31:26.122Z,17.90
2018-06-25T08:36:22.226Z,17.60
2018-06-25T08:41:18.229Z,18.10
2018-06-25T08:43:46.781Z,17.90
2018-06-25T08:46:15.167Z,18.10
2018-06-25T08:53:38.872Z,18.00
2018-06-25T09:03:30.403Z,17.80
2018-06-25T09:05:58.513Z,18.00
2018-06-25T09:10:54.408Z,18.40
2018-06-25T09:13:22.392Z,18.20
2018-06-25T09:15:50.506Z,18.20
2018-06-25T09:20:46.383Z,19.00
2018-06-25T09:23:14.221Z,19.00
2018-06-25T09:28:09.984Z,18.60
2018-06-25T09:30:37.977Z,18.50
2018-06-25T09:33:06.031Z,18.60
2018-06-25T09:38:01.680Z,19.50
2018-06-25T09:50:21.117Z,19.30
2018-06-25T09:57:44.522Z,19.00
2018-06-25T10:00:17.083Z,19.30
2018-06-25T10:02:45.187Z,19.50
2018-06-25T10:05:13.849Z,19.50
2018-06-25T10:17:36.590Z,19.50
2018-06-25T10:20:04.639Z,19.70
2018-06-25T10:25:00.393Z,20.20
2018-06-25T10:27:28.248Z,20.90
2018-06-25T10:29:56.357Z,20.90
2018-06-25T10:32:24.837Z,21.00
2018-06-25T10:37:21.017Z,20.00
2018-06-25T10:44:46.067Z,19.80
2018-06-25T10:47:15.908Z,19.50
2018-06-25T10:52:13.748Z,19.10
2018-06-25T10:54:42.634Z,18.90
2018-06-25T10:59:39.179Z,18.90
2018-06-25T11:02:08.512Z,18.80
2018-06-25T11:14:34.603Z,18.70
2018-06-25T11:17:03.126Z,18.60
2018-06-25T11:19:31.099Z,18.60
2018-06-25T11:24:44.514Z,18.60
2018-06-25T11:29:41.393Z,19.40
2018-06-25T11:32:11.476Z,20.00
2018-06-25T11:34:40.821Z,20.60
2018-06-25T11:39:36.587Z,21.60
2018-06-25T11:44:34.240Z,22.50
2018-06-25T11:47:02.221Z,23.50
2018-06-25T11:49:30.317Z,24.20
2018-06-25T11:51:58.368Z,24.00
2018-06-25T11:54:26.255Z,22.50
2018-06-25T11:56:54.582Z,22.00
2018-06-25T11:59:22.836Z,22.40
2018-06-25T12:04:19.945Z,23.00
2018-06-25T12:09:15.786Z,21.90
2018-06-25T12:14:11.951Z,22.20
2018-06-25T12:19:14.816Z,22.10
2018-06-25T12:25:21.981Z,23.30
2018-06-25T12:30:17.761Z,23.20
2018-06-25T12:32:46.847Z,22.80
2018-06-25T12:37:42.005Z,22.20
2018-06-25T12:40:09.240Z,21.80
2018-06-25T12:42:38.789Z,21.40
2018-06-25T12:47:34.657Z,24.40
2018-06-25T12:50:03.333Z,24.70
2018-06-25T12:52:31.467Z,24.40
2018-06-25T12:59:55.589Z,21.90
2018-06-25T13:04:51.230Z,22.10
2018-06-25T13:09:47.868Z,23.30
2018-06-25T13:12:16.801Z,24.30
2018-06-25T13:14:47.386Z,23.80
2018-06-25T13:17:14.817Z,23.10
2018-06-25T13:22:10.994Z,21.90
2018-06-25T13:24:38.717Z,21.80
2018-06-25T13:32:00.500Z,21.30
2018-06-25T13:36:55.251Z,21.50
2018-06-25T13:41:50.628Z,21.70
2018-06-25T13:44:18.674Z,21.50
2018-06-25T13:49:13.513Z,20.90
2018-06-25T13:51:40.927Z,20.90
2018-06-25T13:56:35.864Z,21.40
2018-06-25T13:59:03.416Z,21.20
2018-06-25T14:04:03.017Z,21.10
2018-06-25T14:08:58.828Z,20.50
2018-06-25T14:11:26.399Z,20.00
2018-06-25T14:31:20.126Z,20.60
2018-06-25T14:33:53.425Z,20.50
2018-06-25T14:36:20.955Z,20.40
2018-06-25T14:41:15.561Z,20.50
2018-06-25T14:48:37.191Z,20.40
2018-06-25T15:03:19.838Z,20.80
2018-06-25T15:08:14.552Z,21.50
2018-06-25T15:10:41.918Z,21.10
2018-06-25T15:18:05.029Z,21.90
2018-06-25T15:20:32.428Z,22.80
2018-06-25T15:23:00.486Z,22.70
2018-06-25T15:25:28.474Z,24.00
2018-06-25T15:27:55.844Z,23.40
2018-06-25T15:30:25.859Z,22.80
2018-06-25T15:32:53.375Z,23.00
2018-06-25T15:35:21.343Z,23.10
2018-06-25T15:37:49.316Z,23.00
2018-06-25T15:42:45.111Z,22.40
2018-06-25T15:45:13.184Z,22.10
2018-06-25T15:47:40.916Z,22.50
2018-06-25T15:52:38.085Z,22.10
2018-06-25T16:00:01.969Z,21.30
2018-06-25T16:07:25.125Z,21.20
2018-06-25T16:09:52.792Z,21.00
2018-06-25T16:12:21.771Z,20.90
2018-06-25T16:14:49.214Z,20.90
2018-06-25T16:19:43.727Z,20.10
2018-06-25T16:22:11.634Z,20.20
2018-06-25T16:24:39.006Z,19.90
2018-06-25T16:29:38.127Z,19.60
2018-06-25T16:42:13.357Z,19.40
2018-06-25T16:44:42.436Z,19.30
2018-06-25T16:47:14.823Z,19.50
2018-06-25T16:49:42.171Z,19.50
2018-06-25T16:54:36.959Z,19.50
2018-06-25T16:57:05.125Z,19.70
2018-06-25T16:59:34.075Z,19.70
2018-06-25T17:04:29.141Z,19.60
2018-06-25T17:06:57.900Z,19.60
2018-06-25T17:21:44.910Z,19.30
2018-06-25T17:24:15.300Z,19.10
2018-06-25T17:26:43.241Z,19.00
2018-06-25T17:29:18.388Z,18.80
2018-06-25T17:31:48.908Z,18.60
2018-06-25T17:36:44.356Z,18.80
2018-06-25T17:41:40.222Z,18.70
2018-06-25T17:44:08.404Z,18.70
2018-06-25T17:46:36.645Z,18.80
2018-06-25T17:53:59.616Z,18.10
2018-06-25T17:56:27.725Z,18.00
2018-06-25T17:58:55.975Z,17.90
2018-06-25T18:01:24.210Z,17.90
2018-06-25T18:03:54.808Z,17.80
2018-06-25T18:06:22.953Z,17.90
2018-06-25T18:08:51.170Z,18.00
2018-06-25T18:11:19.738Z,17.70
2018-06-25T18:13:47.905Z,17.40
2018-06-25T18:16:19.445Z,17.60
2018-06-25T18:21:15.812Z,17.50
2018-06-25T18:31:11.033Z,17.10
2018-06-25T18:51:24.621Z,16.60
2018-06-25T18:53:54.782Z,16.80
2018-06-25T18:56:26.428Z,16.70
2018-06-25T18:58:55.053Z,16.70
2018-06-25T19:01:30.316Z,16.70
2018-06-25T19:03:58.568Z,16.80
2018-06-25T19:11:27.349Z,17.00
2018-06-25T19:16:26.453Z,16.90
2018-06-25T19:18:55.693Z,16.80
2018-06-25T19:21:24.969Z,16.80
2018-06-25T19:23:53.043Z,16.90
2018-06-25T19:26:21.050Z,16.80
2018-06-25T19:28:49.010Z,16.70
2018-06-25T19:31:18.360Z,16.80
2018-06-25T19:36:16.931Z,16.70
2018-06-25T19:38:46.499Z,16.50
2018-06-25T19:41:16.307Z,16.60
2018-06-25T19:43:48.333Z,16.60
2018-06-25T19:48:48.421Z,16.40
2018-06-25T19:51:16.502Z,16.50
2018-06-25T19:56:44.219Z,16.30
2018-06-25T19:59:12.244Z,16.30
2018-06-25T20:01:40.752Z,15.90
2018-06-25T20:04:08.985Z,16.10
2018-06-25T20:06:38.499Z,16.00
2018-06-25T20:09:10.478Z,16.00
2018-06-25T20:11:39.618Z,15.70
2018-06-25T20:14:09.331Z,15.80
2018-06-25T20:16:37.345Z,15.60
2018-06-25T20:21:33.615Z,15.40
2018-06-25T20:24:03.307Z,15.30
2018-06-25T20:26:31.419Z,15.30
2018-06-25T20:33:57.980Z,15.10
2018-06-25T20:36:32.401Z,15.00
2018-06-25T20:39:00.731Z,14.80
2018-06-25T20:46:24.757Z,14.70
2018-06-25T20:51:21.932Z,14.70
2018-06-25T20:53:51.914Z,14.40
2018-06-25T21:01:23.233Z,14.40
2018-06-25T21:03:55.491Z,14.30
2018-06-25T21:06:26.381Z,14.30
2018-06-25T21:08:55.597Z,14.30
2018-06-25T21:11:25.760Z,13.90
2018-06-25T21:13:58.932Z,14.10
2018-06-25T21:16:32.964Z,14.10
2018-06-25T21:21:29.593Z,14.00
2018-06-25T21:23:58.485Z,13.90
2018-06-25T21:26:34.292Z,13.90
2018-06-25T21:29:03.194Z,13.90
2018-06-25T21:31:35.010Z,13.80
2018-06-25T21:34:03.177Z,13.90
2018-06-25T21:36:32.440Z,13.70
2018-06-25T21:39:01.191Z,13.60
2018-06-25T21:41:29.609Z,13.60
2018-06-25T21:43:58.049Z,13.50
2018-06-25T21:46:26.156Z,13.50
2018-06-25T21:48:54.104Z,13.50
2018-06-25T21:51:22.436Z,13.50
2018-06-25T21:53:51.478Z,13.50
2018-06-25T22:01:18.501Z,13.30
2018-06-25T22:03:47.228Z,13.60
2018-06-25T22:08:44.229Z,13.20
2018-06-25T22:11:12.802Z,13.20
2018-06-25T22:13:40.964Z,13.20
2018-06-25T22:16:09.396Z,13.20
2018-06-25T22:18:37.399Z,13.10
2018-06-25T22:21:05.770Z,13.00
2018-06-25T22:23:33.800Z,13.10
2018-06-25T22:28:30.509Z,12.90
2018-06-25T22:30:58.998Z,12.90
2018-06-25T22:33:27.899Z,12.90
2018-06-25T22:38:23.917Z,13.00
2018-06-25T22:43:20.199Z,13.00
2018-06-25T22:45:48.130Z,13.10
2018-06-25T22:48:16.290Z,13.10
2018-06-25T22:50:44.525Z,13.10
2018-06-25T22:53:12.604Z,13.00
2018-06-25T22:55:40.834Z,13.10
2018-06-25T22:58:08.988Z,12.80
2018-06-25T23:00:36.986Z,13.00
2018-06-25T23:05:33.413Z,13.00
2018-06-25T23:08:01.852Z,13.00
2018-06-25T23:10:30.423Z,12.80
2018-06-25T23:12:58.497Z,12.90
2018-06-25T23:15:26.562Z,12.90
2018-06-25T23:17:54.636Z,12.80
2018-06-25T23:22:55.388Z,12.60
2018-06-25T23:25:23.837Z,12.80
2018-06-25T23:27:52.000Z,12.80
2018-06-25T23:30:20.538Z,12.60
2018-06-25T23:32:48.997Z,13.00
2018-06-25T23:35:17.553Z,13.10
2018-06-25T23:37:45.812Z,13.20
2018-06-25T23:40:14.324Z,13.00
2018-06-25T23:42:42.275Z,13.00
2018-06-25T23:45:10.734Z,12.90
2018-06-25T23:50:06.741Z,13.20
2018-06-25T23:52:35.225Z,13.40
2018-06-25T23:55:03.333Z,13.30
